sensor_id;sensor_type;location;lat;lon;timestamp;P1;durP1;ratioP1;P2;durP2;ratioP2
70414;SDS011;57837;52.064;113.478;2023-03-26T00:02:13;140.05;;;46.90;;
70414;SDS011;57837;52.064;113.478;2023-03-26T00:05:16;134.82;;;54.05;;
70414;SDS011;57837;52.064;113.478;2023-03-26T00:08:19;133.70;;;53.05;;
70414;SDS011;57837;52.064;113.478;2023-03-26T00:11:24;146.57;;;56.28;;
70414;SDS011;57837;52.064;113.478;2023-03-26T00:14:28;124.97;;;52.23;;
70414;SDS011;57837;52.064;113.478;2023-03-26T00:17:32;126.63;;;53.85;;
70414;SDS011;57837;52.064;113.478;2023-03-26T00:20:35;123.97;;;50.75;;
70414;SDS011;57837;52.064;113.478;2023-03-26T00:23:40;123.65;;;49.20;;
70414;SDS011;57837;52.064;113.478;2023-03-26T00:26:44;116.07;;;47.30;;
70414;SDS011;57837;52.064;113.478;2023-03-26T00:29:53;127.17;;;48.20;;
70414;SDS011;57837;52.064;113.478;2023-03-26T00:33:00;125.00;;;46.33;;
70414;SDS011;57837;52.064;113.478;2023-03-26T00:36:06;129.88;;;48.47;;
70414;SDS011;57837;52.064;113.478;2023-03-26T00:39:12;135.00;;;53.03;;
70414;SDS011;57837;52.064;113.478;2023-03-26T00:42:16;159.20;;;62.30;;
70414;SDS011;57837;52.064;113.478;2023-03-26T00:45:45;167.00;;;66.50;;
70414;SDS011;57837;52.064;113.478;2023-03-26T00:48:57;188.73;;;71.70;;
70414;SDS011;57837;52.064;113.478;2023-03-26T00:52:02;157.35;;;70.55;;
70414;SDS011;57837;52.064;113.478;2023-03-26T00:55:06;153.60;;;62.50;;
70414;SDS011;57837;52.064;113.478;2023-03-26T00:58:10;131.40;;;52.88;;
70414;SDS011;57837;52.064;113.478;2023-03-26T01:01:15;109.37;;;46.40;;
70414;SDS011;57837;52.064;113.478;2023-03-26T01:07:32;95.55;;;40.88;;
70414;SDS011;57837;52.064;113.478;2023-03-26T01:10:36;80.78;;;34.28;;
70414;SDS011;57837;52.064;113.478;2023-03-26T01:13:46;72.25;;;33.05;;
70414;SDS011;57837;52.064;113.478;2023-03-26T01:16:58;75.83;;;32.43;;
70414;SDS011;57837;52.064;113.478;2023-03-26T01:20:14;86.07;;;39.58;;
70414;SDS011;57837;52.064;113.478;2023-03-26T01:23:29;84.07;;;36.55;;
70414;SDS011;57837;52.064;113.478;2023-03-26T01:36:52;63.42;;;28.48;;
70414;SDS011;57837;52.064;113.478;2023-03-26T01:43:35;47.05;;;21.92;;
70414;SDS011;57837;52.064;113.478;2023-03-26T01:46:41;22.48;;;10.45;;
70414;SDS011;57837;52.064;113.478;2023-03-26T01:49:46;19.57;;;7.80;;
70414;SDS011;57837;52.064;113.478;2023-03-26T01:52:50;13.77;;;4.90;;
70414;SDS011;57837;52.064;113.478;2023-03-26T01:55:58;10.18;;;3.50;;
70414;SDS011;57837;52.064;113.478;2023-03-26T01:59:21;13.13;;;4.35;;
70414;SDS011;57837;52.064;113.478;2023-03-26T02:05:57;19.57;;;5.07;;
70414;SDS011;57837;52.064;113.478;2023-03-26T02:09:10;20.75;;;5.40;;
70414;SDS011;57837;52.064;113.478;2023-03-26T02:12:19;20.30;;;6.13;;
70414;SDS011;57837;52.064;113.478;2023-03-26T02:15:24;20.48;;;8.25;;
70414;SDS011;57837;52.064;113.478;2023-03-26T02:18:28;34.70;;;14.75;;
70414;SDS011;57837;52.064;113.478;2023-03-26T02:21:38;24.87;;;9.20;;
70414;SDS011;57837;52.064;113.478;2023-03-26T02:24:42;12.27;;;5.35;;
70414;SDS011;57837;52.064;113.478;2023-03-26T02:27:46;18.52;;;8.27;;
70414;SDS011;57837;52.064;113.478;2023-03-26T02:30:51;38.97;;;17.45;;
70414;SDS011;57837;52.064;113.478;2023-03-26T02:33:59;23.02;;;10.93;;
70414;SDS011;57837;52.064;113.478;2023-03-26T02:37:05;20.97;;;10.00;;
70414;SDS011;57837;52.064;113.478;2023-03-26T02:40:33;13.60;;;6.13;;
70414;SDS011;57837;52.064;113.478;2023-03-26T02:43:36;13.70;;;7.10;;
70414;SDS011;57837;52.064;113.478;2023-03-26T02:46:43;14.48;;;6.13;;
70414;SDS011;57837;52.064;113.478;2023-03-26T02:50:15;18.30;;;7.13;;
70414;SDS011;57837;52.064;113.478;2023-03-26T02:53:38;21.20;;;8.97;;
70414;SDS011;57837;52.064;113.478;2023-03-26T02:57:00;18.60;;;9.73;;
70414;SDS011;57837;52.064;113.478;2023-03-26T03:00:22;13.13;;;6.28;;
70414;SDS011;57837;52.064;113.478;2023-03-26T03:03:45;11.50;;;6.20;;
70414;SDS011;57837;52.064;113.478;2023-03-26T03:07:08;13.27;;;5.43;;
70414;SDS011;57837;52.064;113.478;2023-03-26T03:10:16;9.53;;;3.57;;
70414;SDS011;57837;52.064;113.478;2023-03-26T03:13:46;17.88;;;7.63;;
70414;SDS011;57837;52.064;113.478;2023-03-26T03:17:09;11.88;;;4.60;;
70414;SDS011;57837;52.064;113.478;2023-03-26T03:20:12;11.68;;;4.60;;
70414;SDS011;57837;52.064;113.478;2023-03-26T03:23:15;10.50;;;4.72;;
70414;SDS011;57837;52.064;113.478;2023-03-26T03:26:19;11.63;;;5.20;;
70414;SDS011;57837;52.064;113.478;2023-03-26T03:29:26;13.30;;;4.82;;
70414;SDS011;57837;52.064;113.478;2023-03-26T03:32:34;10.68;;;5.07;;
70414;SDS011;57837;52.064;113.478;2023-03-26T03:35:38;15.80;;;6.07;;
70414;SDS011;57837;52.064;113.478;2023-03-26T03:38:43;10.93;;;4.60;;
70414;SDS011;57837;52.064;113.478;2023-03-26T03:41:51;8.97;;;3.83;;
70414;SDS011;57837;52.064;113.478;2023-03-26T03:44:55;6.38;;;3.20;;
70414;SDS011;57837;52.064;113.478;2023-03-26T03:48:17;8.10;;;3.92;;
70414;SDS011;57837;52.064;113.478;2023-03-26T03:51:22;10.45;;;5.75;;
70414;SDS011;57837;52.064;113.478;2023-03-26T03:54:58;7.13;;;3.30;;
70414;SDS011;57837;52.064;113.478;2023-03-26T03:58:18;4.70;;;1.80;;
70414;SDS011;57837;52.064;113.478;2023-03-26T04:01:25;8.82;;;3.22;;
70414;SDS011;57837;52.064;113.478;2023-03-26T04:04:33;8.88;;;3.50;;
70414;SDS011;57837;52.064;113.478;2023-03-26T04:07:39;9.18;;;3.28;;
70414;SDS011;57837;52.064;113.478;2023-03-26T04:10:57;10.32;;;3.63;;
70414;SDS011;57837;52.064;113.478;2023-03-26T04:14:38;7.30;;;3.10;;
70414;SDS011;57837;52.064;113.478;2023-03-26T04:17:46;7.15;;;2.60;;
70414;SDS011;57837;52.064;113.478;2023-03-26T04:20:51;6.78;;;2.83;;
70414;SDS011;57837;52.064;113.478;2023-03-26T04:24:00;6.07;;;2.95;;
70414;SDS011;57837;52.064;113.478;2023-03-26T04:27:28;8.10;;;3.03;;
70414;SDS011;57837;52.064;113.478;2023-03-26T04:30:47;8.53;;;3.47;;
70414;SDS011;57837;52.064;113.478;2023-03-26T04:34:08;9.20;;;3.22;;
70414;SDS011;57837;52.064;113.478;2023-03-26T04:37:42;7.43;;;3.38;;
70414;SDS011;57837;52.064;113.478;2023-03-26T04:40:52;7.82;;;2.72;;
70414;SDS011;57837;52.064;113.478;2023-03-26T04:44:10;6.38;;;2.78;;
70414;SDS011;57837;52.064;113.478;2023-03-26T04:47:25;6.30;;;2.87;;
70414;SDS011;57837;52.064;113.478;2023-03-26T04:50:28;6.35;;;2.50;;
70414;SDS011;57837;52.064;113.478;2023-03-26T04:53:32;4.95;;;2.55;;
70414;SDS011;57837;52.064;113.478;2023-03-26T04:57:00;6.68;;;2.70;;
70414;SDS011;57837;52.064;113.478;2023-03-26T05:00:19;8.40;;;3.35;;
70414;SDS011;57837;52.064;113.478;2023-03-26T05:03:33;9.80;;;3.07;;
70414;SDS011;57837;52.064;113.478;2023-03-26T05:06:41;6.07;;;2.50;;
70414;SDS011;57837;52.064;113.478;2023-03-26T05:09:55;6.57;;;2.50;;
70414;SDS011;57837;52.064;113.478;2023-03-26T05:13:11;5.80;;;2.50;;
70414;SDS011;57837;52.064;113.478;2023-03-26T05:16:20;5.07;;;2.25;;
70414;SDS011;57837;52.064;113.478;2023-03-26T05:19:30;4.00;;;2.07;;
70414;SDS011;57837;52.064;113.478;2023-03-26T05:22:34;5.18;;;2.00;;
70414;SDS011;57837;52.064;113.478;2023-03-26T05:25:49;4.43;;;2.13;;
70414;SDS011;57837;52.064;113.478;2023-03-26T05:28:56;3.42;;;1.80;;
70414;SDS011;57837;52.064;113.478;2023-03-26T05:32:06;4.35;;;2.25;;
70414;SDS011;57837;52.064;113.478;2023-03-26T05:35:11;5.20;;;2.13;;
70414;SDS011;57837;52.064;113.478;2023-03-26T05:38:15;3.63;;;1.70;;
70414;SDS011;57837;52.064;113.478;2023-03-26T05:41:20;3.13;;;1.50;;
70414;SDS011;57837;52.064;113.478;2023-03-26T05:44:23;3.13;;;1.50;;
70414;SDS011;57837;52.064;113.478;2023-03-26T05:47:28;5.22;;;2.53;;
70414;SDS011;57837;52.064;113.478;2023-03-26T05:50:31;9.00;;;2.80;;
70414;SDS011;57837;52.064;113.478;2023-03-26T05:53:34;4.38;;;1.67;;
70414;SDS011;57837;52.064;113.478;2023-03-26T05:56:53;5.30;;;2.90;;
70414;SDS011;57837;52.064;113.478;2023-03-26T06:00:16;7.07;;;2.92;;
70414;SDS011;57837;52.064;113.478;2023-03-26T06:03:20;6.50;;;3.10;;
70414;SDS011;57837;52.064;113.478;2023-03-26T06:06:30;7.30;;;3.83;;
70414;SDS011;57837;52.064;113.478;2023-03-26T06:09:35;19.40;;;10.23;;
70414;SDS011;57837;52.064;113.478;2023-03-26T06:12:42;6.13;;;2.08;;
70414;SDS011;57837;52.064;113.478;2023-03-26T06:15:46;6.60;;;2.95;;
70414;SDS011;57837;52.064;113.478;2023-03-26T06:19:11;3.58;;;1.92;;
70414;SDS011;57837;52.064;113.478;2023-03-26T06:22:45;4.93;;;2.57;;
70414;SDS011;57837;52.064;113.478;2023-03-26T06:26:09;4.80;;;2.35;;
70414;SDS011;57837;52.064;113.478;2023-03-26T06:29:30;4.45;;;2.20;;
70414;SDS011;57837;52.064;113.478;2023-03-26T06:32:47;3.10;;;1.60;;
70414;SDS011;57837;52.064;113.478;2023-03-26T06:35:56;2.67;;;1.55;;
70414;SDS011;57837;52.064;113.478;2023-03-26T06:39:00;3.50;;;1.90;;
70414;SDS011;57837;52.064;113.478;2023-03-26T06:42:13;11.45;;;3.75;;
70414;SDS011;57837;52.064;113.478;2023-03-26T06:45:18;6.90;;;2.35;;
70414;SDS011;57837;52.064;113.478;2023-03-26T06:48:50;4.70;;;2.53;;
70414;SDS011;57837;52.064;113.478;2023-03-26T06:52:29;8.25;;;3.92;;
70414;SDS011;57837;52.064;113.478;2023-03-26T06:55:56;10.80;;;4.47;;
70414;SDS011;57837;52.064;113.478;2023-03-26T06:59:22;7.47;;;3.30;;
70414;SDS011;57837;52.064;113.478;2023-03-26T07:02:43;9.98;;;3.30;;
70414;SDS011;57837;52.064;113.478;2023-03-26T07:06:07;9.95;;;4.82;;
70414;SDS011;57837;52.064;113.478;2023-03-26T07:09:28;10.13;;;4.30;;
70414;SDS011;57837;52.064;113.478;2023-03-26T07:13:08;6.47;;;3.40;;
70414;SDS011;57837;52.064;113.478;2023-03-26T07:16:41;9.93;;;3.10;;
70414;SDS011;57837;52.064;113.478;2023-03-26T07:20:08;6.03;;;2.47;;
70414;SDS011;57837;52.064;113.478;2023-03-26T07:23:14;5.90;;;3.08;;
70414;SDS011;57837;52.064;113.478;2023-03-26T07:29:56;8.77;;;4.00;;
70414;SDS011;57837;52.064;113.478;2023-03-26T07:37:39;7.47;;;3.20;;
70414;SDS011;57837;52.064;113.478;2023-03-26T07:48:46;9.60;;;3.60;;
70414;SDS011;57837;52.064;113.478;2023-03-26T07:52:10;7.65;;;2.63;;
70414;SDS011;57837;52.064;113.478;2023-03-26T07:55:30;5.10;;;2.70;;
70414;SDS011;57837;52.064;113.478;2023-03-26T08:06:11;9.00;;;2.97;;
70414;SDS011;57837;52.064;113.478;2023-03-26T08:09:47;6.20;;;2.58;;
70414;SDS011;57837;52.064;113.478;2023-03-26T08:16:35;4.28;;;2.67;;
70414;SDS011;57837;52.064;113.478;2023-03-26T08:27:03;9.18;;;4.30;;
70414;SDS011;57837;52.064;113.478;2023-03-26T08:30:25;7.13;;;3.47;;
70414;SDS011;57837;52.064;113.478;2023-03-26T08:33:29;5.20;;;3.03;;
70414;SDS011;57837;52.064;113.478;2023-03-26T08:36:32;6.95;;;2.72;;
70414;SDS011;57837;52.064;113.478;2023-03-26T08:39:35;6.93;;;3.50;;
70414;SDS011;57837;52.064;113.478;2023-03-26T09:36:31;11.90;;;6.25;;
70414;SDS011;57837;52.064;113.478;2023-03-26T10:03:40;9.23;;;4.80;;
70414;SDS011;57837;52.064;113.478;2023-03-26T10:39:57;28.30;;;14.07;;
70414;SDS011;57837;52.064;113.478;2023-03-26T10:56:53;35.90;;;20.27;;
70414;SDS011;57837;52.064;113.478;2023-03-26T11:00:10;34.85;;;18.88;;
70414;SDS011;57837;52.064;113.478;2023-03-26T11:03:19;35.17;;;20.70;;
70414;SDS011;57837;52.064;113.478;2023-03-26T11:09:57;38.03;;;21.40;;
70414;SDS011;57837;52.064;113.478;2023-03-26T11:17:00;69.43;;;33.72;;
70414;SDS011;57837;52.064;113.478;2023-03-26T11:31:22;110.85;;;47.65;;
70414;SDS011;57837;52.064;113.478;2023-03-26T11:39:12;96.65;;;42.20;;
70414;SDS011;57837;52.064;113.478;2023-03-26T11:42:12;135.25;;;60.90;;
70414;SDS011;57837;52.064;113.478;2023-03-26T11:45:19;116.07;;;54.07;;
70414;SDS011;57837;52.064;113.478;2023-03-26T11:51:36;117.35;;;58.35;;
70414;SDS011;57837;52.064;113.478;2023-03-26T11:54:45;102.00;;;47.58;;
70414;SDS011;57837;52.064;113.478;2023-03-26T11:57:52;78.03;;;37.88;;
70414;SDS011;57837;52.064;113.478;2023-03-26T12:01:02;74.17;;;35.30;;
70414;SDS011;57837;52.064;113.478;2023-03-26T12:04:11;52.67;;;25.50;;
70414;SDS011;57837;52.064;113.478;2023-03-26T12:07:20;52.55;;;23.25;;
70414;SDS011;57837;52.064;113.478;2023-03-26T12:10:57;47.80;;;21.63;;
70414;SDS011;57837;52.064;113.478;2023-03-26T12:14:04;75.78;;;32.20;;
70414;SDS011;57837;52.064;113.478;2023-03-26T12:17:13;73.83;;;32.93;;
70414;SDS011;57837;52.064;113.478;2023-03-26T12:20:33;57.03;;;23.80;;
70414;SDS011;57837;52.064;113.478;2023-03-26T12:30:25;40.67;;;18.23;;
70414;SDS011;57837;52.064;113.478;2023-03-26T12:33:33;48.97;;;21.33;;
70414;SDS011;57837;52.064;113.478;2023-03-26T12:36:37;63.83;;;26.77;;
70414;SDS011;57837;52.064;113.478;2023-03-26T12:39:41;59.58;;;27.35;;
70414;SDS011;57837;52.064;113.478;2023-03-26T12:43:05;65.85;;;28.15;;
70414;SDS011;57837;52.064;113.478;2023-03-26T12:46:42;72.65;;;29.27;;
70414;SDS011;57837;52.064;113.478;2023-03-26T12:50:11;84.10;;;36.63;;
70414;SDS011;57837;52.064;113.478;2023-03-26T13:20:48;76.15;;;31.98;;
70414;SDS011;57837;52.064;113.478;2023-03-26T13:37:17;82.97;;;28.35;;
70414;SDS011;57837;52.064;113.478;2023-03-26T13:40:47;89.13;;;35.03;;
70414;SDS011;57837;52.064;113.478;2023-03-26T13:47:46;56.97;;;24.98;;
70414;SDS011;57837;52.064;113.478;2023-03-26T13:51:12;69.57;;;29.08;;
70414;SDS011;57837;52.064;113.478;2023-03-26T13:58:24;71.85;;;27.98;;
70414;SDS011;57837;52.064;113.478;2023-03-26T14:01:37;50.40;;;20.83;;
70414;SDS011;57837;52.064;113.478;2023-03-26T14:04:50;61.35;;;25.05;;
70414;SDS011;57837;52.064;113.478;2023-03-26T14:11:27;35.67;;;14.90;;
70414;SDS011;57837;52.064;113.478;2023-03-26T14:15:05;35.30;;;13.55;;
70414;SDS011;57837;52.064;113.478;2023-03-26T14:22:49;35.30;;;13.85;;
70414;SDS011;57837;52.064;113.478;2023-03-26T14:35:35;48.33;;;19.60;;
70414;SDS011;57837;52.064;113.478;2023-03-26T14:42:18;58.80;;;25.30;;
70414;SDS011;57837;52.064;113.478;2023-03-26T14:52:50;35.50;;;15.43;;
70414;SDS011;57837;52.064;113.478;2023-03-26T14:59:21;78.60;;;29.15;;
70414;SDS011;57837;52.064;113.478;2023-03-26T15:23:38;56.42;;;19.08;;
70414;SDS011;57837;52.064;113.478;2023-03-26T15:33:59;34.97;;;14.40;;
70414;SDS011;57837;52.064;113.478;2023-03-26T15:37:56;31.92;;;14.23;;
70414;SDS011;57837;52.064;113.478;2023-03-26T15:44:52;60.30;;;22.30;;
70414;SDS011;57837;52.064;113.478;2023-03-26T16:02:36;34.80;;;13.90;;
70414;SDS011;57837;52.064;113.478;2023-03-26T16:11:55;43.83;;;17.13;;
70414;SDS011;57837;52.064;113.478;2023-03-26T16:24:39;41.80;;;16.77;;
70414;SDS011;57837;52.064;113.478;2023-03-26T16:28:05;34.33;;;14.68;;
70414;SDS011;57837;52.064;113.478;2023-03-26T16:38:09;25.25;;;12.00;;
70414;SDS011;57837;52.064;113.478;2023-03-26T16:41:16;25.88;;;11.52;;
70414;SDS011;57837;52.064;113.478;2023-03-26T16:57:53;30.42;;;12.90;;
70414;SDS011;57837;52.064;113.478;2023-03-26T17:01:20;25.42;;;11.68;;
70414;SDS011;57837;52.064;113.478;2023-03-26T17:04:45;33.00;;;14.93;;
70414;SDS011;57837;52.064;113.478;2023-03-26T17:17:48;40.47;;;16.00;;
70414;SDS011;57837;52.064;113.478;2023-03-26T17:35:02;44.40;;;15.65;;
70414;SDS011;57837;52.064;113.478;2023-03-26T17:38:52;41.47;;;16.27;;
70414;SDS011;57837;52.064;113.478;2023-03-26T17:41:49;33.95;;;13.25;;
70414;SDS011;57837;52.064;113.478;2023-03-26T17:44:56;24.85;;;12.75;;
70414;SDS011;57837;52.064;113.478;2023-03-26T17:48:20;32.22;;;12.98;;
70414;SDS011;57837;52.064;113.478;2023-03-26T17:54:40;27.63;;;12.07;;
70414;SDS011;57837;52.064;113.478;2023-03-26T17:57:48;24.70;;;11.73;;
70414;SDS011;57837;52.064;113.478;2023-03-26T18:04:38;24.42;;;10.27;;
70414;SDS011;57837;52.064;113.478;2023-03-26T18:11:26;24.87;;;10.30;;
70414;SDS011;57837;52.064;113.478;2023-03-26T18:21:41;19.00;;;8.55;;
70414;SDS011;57837;52.064;113.478;2023-03-26T18:24:47;14.60;;;6.93;;
70414;SDS011;57837;52.064;113.478;2023-03-26T18:27:51;16.00;;;7.40;;
70414;SDS011;57837;52.064;113.478;2023-03-26T18:30:55;12.70;;;6.68;;
70414;SDS011;57837;52.064;113.478;2023-03-26T18:34:12;18.08;;;8.75;;
70414;SDS011;57837;52.064;113.478;2023-03-26T18:40:40;17.65;;;7.78;;
70414;SDS011;57837;52.064;113.478;2023-03-26T18:43:46;15.45;;;8.88;;
70414;SDS011;57837;52.064;113.478;2023-03-26T18:46:50;14.48;;;7.90;;
70414;SDS011;57837;52.064;113.478;2023-03-26T18:49:58;18.27;;;7.27;;
70414;SDS011;57837;52.064;113.478;2023-03-26T18:53:02;16.55;;;6.93;;
70414;SDS011;57837;52.064;113.478;2023-03-26T18:59:39;13.13;;;5.97;;
70414;SDS011;57837;52.064;113.478;2023-03-26T19:02:47;12.02;;;6.05;;
70414;SDS011;57837;52.064;113.478;2023-03-26T19:05:54;11.38;;;6.97;;
70414;SDS011;57837;52.064;113.478;2023-03-26T19:09:00;14.43;;;6.43;;
70414;SDS011;57837;52.064;113.478;2023-03-26T19:12:26;19.33;;;7.13;;
70414;SDS011;57837;52.064;113.478;2023-03-26T19:15:34;23.55;;;9.30;;
70414;SDS011;57837;52.064;113.478;2023-03-26T19:18:38;17.27;;;8.32;;
70414;SDS011;57837;52.064;113.478;2023-03-26T19:21:44;22.20;;;8.73;;
70414;SDS011;57837;52.064;113.478;2023-03-26T19:24:48;22.20;;;10.55;;
70414;SDS011;57837;52.064;113.478;2023-03-26T19:27:58;26.02;;;9.55;;
70414;SDS011;57837;52.064;113.478;2023-03-26T19:31:15;20.05;;;7.22;;
70414;SDS011;57837;52.064;113.478;2023-03-26T19:34:28;17.57;;;6.97;;
70414;SDS011;57837;52.064;113.478;2023-03-26T19:37:32;15.43;;;6.57;;
70414;SDS011;57837;52.064;113.478;2023-03-26T19:40:36;19.52;;;7.65;;
70414;SDS011;57837;52.064;113.478;2023-03-26T19:43:51;20.55;;;7.38;;
70414;SDS011;57837;52.064;113.478;2023-03-26T19:47:18;23.10;;;7.55;;
70414;SDS011;57837;52.064;113.478;2023-03-26T19:50:39;20.98;;;8.35;;
70414;SDS011;57837;52.064;113.478;2023-03-26T19:53:45;21.58;;;7.50;;
70414;SDS011;57837;52.064;113.478;2023-03-26T19:56:52;29.23;;;10.23;;
70414;SDS011;57837;52.064;113.478;2023-03-26T19:59:56;25.98;;;10.88;;
70414;SDS011;57837;52.064;113.478;2023-03-26T20:02:59;28.77;;;11.02;;
70414;SDS011;57837;52.064;113.478;2023-03-26T20:06:03;42.08;;;15.68;;
70414;SDS011;57837;52.064;113.478;2023-03-26T20:09:07;41.72;;;15.95;;
70414;SDS011;57837;52.064;113.478;2023-03-26T20:12:13;41.05;;;15.23;;
70414;SDS011;57837;52.064;113.478;2023-03-26T20:15:19;25.85;;;11.85;;
70414;SDS011;57837;52.064;113.478;2023-03-26T20:18:25;18.67;;;8.43;;
70414;SDS011;57837;52.064;113.478;2023-03-26T20:21:29;31.02;;;12.23;;
70414;SDS011;57837;52.064;113.478;2023-03-26T20:24:33;135.38;;;63.50;;
70414;SDS011;57837;52.064;113.478;2023-03-26T20:27:37;136.20;;;57.67;;
70414;SDS011;57837;52.064;113.478;2023-03-26T20:30:40;150.82;;;63.35;;
70414;SDS011;57837;52.064;113.478;2023-03-26T20:33:44;118.18;;;47.35;;
70414;SDS011;57837;52.064;113.478;2023-03-26T20:36:50;201.65;;;77.65;;
70414;SDS011;57837;52.064;113.478;2023-03-26T20:39:57;94.37;;;38.67;;
70414;SDS011;57837;52.064;113.478;2023-03-26T20:43:01;93.40;;;36.53;;
70414;SDS011;57837;52.064;113.478;2023-03-26T20:46:05;81.43;;;32.63;;
70414;SDS011;57837;52.064;113.478;2023-03-26T20:49:10;72.57;;;29.43;;
70414;SDS011;57837;52.064;113.478;2023-03-26T20:52:13;59.40;;;24.98;;
70414;SDS011;57837;52.064;113.478;2023-03-26T20:55:18;62.58;;;21.02;;
70414;SDS011;57837;52.064;113.478;2023-03-26T20:58:24;53.90;;;22.08;;
70414;SDS011;57837;52.064;113.478;2023-03-26T21:01:33;40.53;;;17.73;;
70414;SDS011;57837;52.064;113.478;2023-03-26T21:04:37;38.20;;;15.57;;
70414;SDS011;57837;52.064;113.478;2023-03-26T21:07:41;36.88;;;13.95;;
70414;SDS011;57837;52.064;113.478;2023-03-26T21:10:45;28.23;;;13.17;;
70414;SDS011;57837;52.064;113.478;2023-03-26T21:17:02;28.65;;;12.57;;
70414;SDS011;57837;52.064;113.478;2023-03-26T21:20:05;32.47;;;13.60;;
70414;SDS011;57837;52.064;113.478;2023-03-26T21:23:18;34.67;;;14.48;;
70414;SDS011;57837;52.064;113.478;2023-03-26T21:26:34;31.25;;;11.95;;
70414;SDS011;57837;52.064;113.478;2023-03-26T21:30:01;28.88;;;14.07;;
70414;SDS011;57837;52.064;113.478;2023-03-26T21:33:08;29.13;;;13.93;;
70414;SDS011;57837;52.064;113.478;2023-03-26T21:36:11;25.23;;;12.10;;
70414;SDS011;57837;52.064;113.478;2023-03-26T21:39:15;30.75;;;12.60;;
70414;SDS011;57837;52.064;113.478;2023-03-26T21:42:19;35.23;;;15.00;;
70414;SDS011;57837;52.064;113.478;2023-03-26T21:45:23;31.50;;;15.07;;
70414;SDS011;57837;52.064;113.478;2023-03-26T21:48:27;31.63;;;13.70;;
70414;SDS011;57837;52.064;113.478;2023-03-26T21:51:31;33.93;;;14.03;;
70414;SDS011;57837;52.064;113.478;2023-03-26T21:54:35;35.97;;;15.23;;
70414;SDS011;57837;52.064;113.478;2023-03-26T21:57:51;43.85;;;15.38;;
70414;SDS011;57837;52.064;113.478;2023-03-26T22:04:21;32.75;;;13.80;;
70414;SDS011;57837;52.064;113.478;2023-03-26T22:10:55;29.83;;;14.45;;
70414;SDS011;57837;52.064;113.478;2023-03-26T22:14:00;83.27;;;38.53;;
70414;SDS011;57837;52.064;113.478;2023-03-26T22:17:04;62.63;;;32.10;;
70414;SDS011;57837;52.064;113.478;2023-03-26T22:20:09;43.47;;;19.33;;
70414;SDS011;57837;52.064;113.478;2023-03-26T22:23:13;34.17;;;17.60;;
70414;SDS011;57837;52.064;113.478;2023-03-26T22:26:21;30.55;;;14.73;;
70414;SDS011;57837;52.064;113.478;2023-03-26T22:29:26;33.17;;;15.57;;
70414;SDS011;57837;52.064;113.478;2023-03-26T22:32:30;30.88;;;14.85;;
70414;SDS011;57837;52.064;113.478;2023-03-26T22:35:42;41.25;;;17.35;;
70414;SDS011;57837;52.064;113.478;2023-03-26T22:38:47;44.50;;;18.25;;
70414;SDS011;57837;52.064;113.478;2023-03-26T22:41:50;41.90;;;18.67;;
70414;SDS011;57837;52.064;113.478;2023-03-26T22:44:53;36.10;;;15.40;;
70414;SDS011;57837;52.064;113.478;2023-03-26T22:47:56;36.50;;;15.75;;
70414;SDS011;57837;52.064;113.478;2023-03-26T22:51:06;38.70;;;17.95;;
70414;SDS011;57837;52.064;113.478;2023-03-26T22:54:11;32.70;;;13.63;;
70414;SDS011;57837;52.064;113.478;2023-03-26T22:57:14;35.38;;;13.95;;
70414;SDS011;57837;52.064;113.478;2023-03-26T23:00:18;56.45;;;20.77;;
70414;SDS011;57837;52.064;113.478;2023-03-26T23:03:23;130.38;;;44.97;;
70414;SDS011;57837;52.064;113.478;2023-03-26T23:06:37;141.07;;;54.90;;
70414;SDS011;57837;52.064;113.478;2023-03-26T23:09:40;151.82;;;53.10;;
70414;SDS011;57837;52.064;113.478;2023-03-26T23:12:43;134.02;;;54.95;;
70414;SDS011;57837;52.064;113.478;2023-03-26T23:15:55;128.93;;;51.10;;
70414;SDS011;57837;52.064;113.478;2023-03-26T23:18:59;128.80;;;50.40;;
70414;SDS011;57837;52.064;113.478;2023-03-26T23:22:02;135.57;;;51.90;;
70414;SDS011;57837;52.064;113.478;2023-03-26T23:25:06;137.30;;;48.50;;
70414;SDS011;57837;52.064;113.478;2023-03-26T23:28:11;117.63;;;44.08;;
70414;SDS011;57837;52.064;113.478;2023-03-26T23:31:15;125.32;;;45.38;;
70414;SDS011;57837;52.064;113.478;2023-03-26T23:34:19;110.10;;;42.95;;
70414;SDS011;57837;52.064;113.478;2023-03-26T23:37:23;116.90;;;41.95;;
70414;SDS011;57837;52.064;113.478;2023-03-26T23:40:27;119.32;;;44.40;;
70414;SDS011;57837;52.064;113.478;2023-03-26T23:43:31;115.47;;;47.30;;
70414;SDS011;57837;52.064;113.478;2023-03-26T23:46:35;128.30;;;50.77;;
70414;SDS011;57837;52.064;113.478;2023-03-26T23:49:38;116.40;;;49.20;;
70414;SDS011;57837;52.064;113.478;2023-03-26T23:52:41;107.90;;;43.97;;
70414;SDS011;57837;52.064;113.478;2023-03-26T23:55:48;109.30;;;45.27;;
70414;SDS011;57837;52.064;113.478;2023-03-26T23:58:53;108.93;;;45.03;;
